Portada
METAR-TAF:

METAR-TAF

Aeroports :

Pickens, Carolina del Sud, Estats Units d'Amèrica

latitud: 34-48-36N, longitud: 082-42-10W, altitud: 309 m

Observació

L'informe es va fer fa 11 minuts, a les 13:55 UTC
Vent calma
Temperatura 19°C
Humitat 94%
Pressió 1018 hPa
Visibilitat: 16.1 km
Cel clar

METAR: KLQK 241355Z AUTO 00000KT 10SM CLR 19/18 A3006 RMK AO2 T01900182

Hora: 10:06 (14:06 UTC)


TAF: manca

Observacions i pronòstics meteorològics de més de 4000 aeroports (METAR i TAF).

Les estacions disponibles són els punts grocs i vermells al mapa.

Posi el ratolí al punt desitjat per veure el nom de l'estació.

Feu clic per veure les observacions i els pronòstics meteorològics.

Per canviar el mapa: feu clic els botons verds amb una creu de color negre per apropar; al botó verd amb un guió per allunyar la imatge; o en les fletxes verdes per a mapes adjacents.


METAR-TAF: